sensor_id;sensor_type;location;lat;lon;timestamp;temperature;humidity
76293;DHT22;67256;51.154;4.164;2024-02-14T00:00:08;10.80;99.90
76293;DHT22;67256;51.154;4.164;2024-02-14T00:02:40;10.90;99.90
76293;DHT22;67256;51.154;4.164;2024-02-14T00:05:07;10.90;99.90
76293;DHT22;67256;51.154;4.164;2024-02-14T00:07:32;10.90;99.90
76293;DHT22;67256;51.154;4.164;2024-02-14T00:09:58;11.00;99.90
76293;DHT22;67256;51.154;4.164;2024-02-14T00:12:24;11.00;99.90
76293;DHT22;67256;51.154;4.164;2024-02-14T00:14:50;11.10;99.90
76293;DHT22;67256;51.154;4.164;2024-02-14T00:17:16;11.20;99.90
76293;DHT22;67256;51.154;4.164;2024-02-14T00:19:42;11.20;99.90
76293;DHT22;67256;51.154;4.164;2024-02-14T00:22:07;11.20;99.90
76293;DHT22;67256;51.154;4.164;2024-02-14T00:24:33;11.10;99.90
76293;DHT22;67256;51.154;4.164;2024-02-14T00:27:02;11.30;99.90
76293;DHT22;67256;51.154;4.164;2024-02-14T00:29:28;11.30;99.90
76293;DHT22;67256;51.154;4.164;2024-02-14T00:31:55;11.30;99.90
76293;DHT22;67256;51.154;4.164;2024-02-14T00:34:21;11.40;99.90
76293;DHT22;67256;51.154;4.164;2024-02-14T00:36:47;11.40;99.90
76293;DHT22;67256;51.154;4.164;2024-02-14T00:39:12;11.30;99.90
76293;DHT22;67256;51.154;4.164;2024-02-14T00:41:38;11.20;99.90
76293;DHT22;67256;51.154;4.164;2024-02-14T00:44:04;11.20;99.90
76293;DHT22;67256;51.154;4.164;2024-02-14T00:46:30;11.10;99.90
76293;DHT22;67256;51.154;4.164;2024-02-14T00:48:56;11.10;99.90
76293;DHT22;67256;51.154;4.164;2024-02-14T00:51:22;11.20;99.90
76293;DHT22;67256;51.154;4.164;2024-02-14T00:53:48;11.20;99.90
76293;DHT22;67256;51.154;4.164;2024-02-14T00:56:14;11.10;99.90
76293;DHT22;67256;51.154;4.164;2024-02-14T00:58:40;11.10;99.90
76293;DHT22;67256;51.154;4.164;2024-02-14T01:01:06;11.10;99.90
76293;DHT22;67256;51.154;4.164;2024-02-14T01:03:32;11.20;99.90
76293;DHT22;67256;51.154;4.164;2024-02-14T01:05:58;11.20;99.90
76293;DHT22;67256;51.154;4.164;2024-02-14T01:08:24;11.10;99.90
76293;DHT22;67256;51.154;4.164;2024-02-14T01:10:49;11.00;99.90
76293;DHT22;67256;51.154;4.164;2024-02-14T01:13:18;11.10;99.90
76293;DHT22;67256;51.154;4.164;2024-02-14T01:15:44;11.10;99.90
76293;DHT22;67256;51.154;4.164;2024-02-14T01:18:09;11.10;99.90
76293;DHT22;67256;51.154;4.164;2024-02-14T01:20:35;11.00;99.90
76293;DHT22;67256;51.154;4.164;2024-02-14T01:23:02;11.00;99.90
76293;DHT22;67256;51.154;4.164;2024-02-14T01:25:28;11.10;99.90
76293;DHT22;67256;51.154;4.164;2024-02-14T01:27:55;11.10;99.90
76293;DHT22;67256;51.154;4.164;2024-02-14T01:30:21;11.20;99.90
76293;DHT22;67256;51.154;4.164;2024-02-14T01:32:47;11.20;99.90
76293;DHT22;67256;51.154;4.164;2024-02-14T01:35:12;11.20;99.90
76293;DHT22;67256;51.154;4.164;2024-02-14T01:37:38;11.30;99.90
76293;DHT22;67256;51.154;4.164;2024-02-14T01:40:05;11.20;99.90
76293;DHT22;67256;51.154;4.164;2024-02-14T01:42:33;11.40;99.90
76293;DHT22;67256;51.154;4.164;2024-02-14T01:44:59;11.40;99.90
76293;DHT22;67256;51.154;4.164;2024-02-14T01:47:25;11.20;99.90
76293;DHT22;67256;51.154;4.164;2024-02-14T01:49:51;11.20;99.90
76293;DHT22;67256;51.154;4.164;2024-02-14T01:52:17;11.20;99.90
76293;DHT22;67256;51.154;4.164;2024-02-14T01:54:43;11.10;99.90
76293;DHT22;67256;51.154;4.164;2024-02-14T01:57:09;11.20;99.90
76293;DHT22;67256;51.154;4.164;2024-02-14T01:59:36;11.30;99.90
76293;DHT22;67256;51.154;4.164;2024-02-14T02:02:04;11.10;99.90
76293;DHT22;67256;51.154;4.164;2024-02-14T02:04:33;11.20;99.90
76293;DHT22;67256;51.154;4.164;2024-02-14T02:07:00;11.20;99.90
76293;DHT22;67256;51.154;4.164;2024-02-14T02:09:27;11.20;99.90
76293;DHT22;67256;51.154;4.164;2024-02-14T02:11:53;11.40;99.90
76293;DHT22;67256;51.154;4.164;2024-02-14T02:14:22;11.40;99.90
76293;DHT22;67256;51.154;4.164;2024-02-14T02:16:48;11.30;99.90
76293;DHT22;67256;51.154;4.164;2024-02-14T02:19:14;11.30;99.90
76293;DHT22;67256;51.154;4.164;2024-02-14T02:21:44;11.40;99.90
76293;DHT22;67256;51.154;4.164;2024-02-14T02:24:12;11.40;99.90
76293;DHT22;67256;51.154;4.164;2024-02-14T02:26:39;11.50;99.90
76293;DHT22;67256;51.154;4.164;2024-02-14T02:29:04;11.40;99.90
76293;DHT22;67256;51.154;4.164;2024-02-14T02:31:31;11.40;99.90
76293;DHT22;67256;51.154;4.164;2024-02-14T02:33:57;11.40;99.90
76293;DHT22;67256;51.154;4.164;2024-02-14T02:36:23;11.40;99.90
76293;DHT22;67256;51.154;4.164;2024-02-14T02:38:50;11.50;99.90
76293;DHT22;67256;51.154;4.164;2024-02-14T02:41:16;11.40;99.90
76293;DHT22;67256;51.154;4.164;2024-02-14T02:43:42;11.40;99.90
76293;DHT22;67256;51.154;4.164;2024-02-14T02:46:09;11.40;99.90
76293;DHT22;67256;51.154;4.164;2024-02-14T02:48:35;11.40;99.90
76293;DHT22;67256;51.154;4.164;2024-02-14T02:51:01;11.40;99.90
76293;DHT22;67256;51.154;4.164;2024-02-14T02:53:27;11.50;99.90
76293;DHT22;67256;51.154;4.164;2024-02-14T02:55:53;11.50;99.90
76293;DHT22;67256;51.154;4.164;2024-02-14T02:58:20;11.50;99.90
76293;DHT22;67256;51.154;4.164;2024-02-14T03:00:46;11.50;99.90
76293;DHT22;67256;51.154;4.164;2024-02-14T03:03:15;11.50;99.90
76293;DHT22;67256;51.154;4.164;2024-02-14T03:05:41;11.50;99.90
76293;DHT22;67256;51.154;4.164;2024-02-14T03:08:10;11.50;99.90
76293;DHT22;67256;51.154;4.164;2024-02-14T03:10:39;11.50;99.90
76293;DHT22;67256;51.154;4.164;2024-02-14T03:13:06;11.50;99.90
76293;DHT22;67256;51.154;4.164;2024-02-14T03:15:34;11.50;99.90
76293;DHT22;67256;51.154;4.164;2024-02-14T03:18:01;11.50;99.90
76293;DHT22;67256;51.154;4.164;2024-02-14T03:20:27;11.50;99.90
76293;DHT22;67256;51.154;4.164;2024-02-14T03:22:54;11.50;99.90
76293;DHT22;67256;51.154;4.164;2024-02-14T03:25:20;11.50;99.90
76293;DHT22;67256;51.154;4.164;2024-02-14T03:27:47;11.50;99.90
76293;DHT22;67256;51.154;4.164;2024-02-14T03:30:16;11.60;99.90
76293;DHT22;67256;51.154;4.164;2024-02-14T03:32:45;11.60;99.90
76293;DHT22;67256;51.154;4.164;2024-02-14T03:35:12;11.70;99.90
76293;DHT22;67256;51.154;4.164;2024-02-14T03:37:40;11.70;99.90
76293;DHT22;67256;51.154;4.164;2024-02-14T03:40:07;11.70;99.90
76293;DHT22;67256;51.154;4.164;2024-02-14T03:42:34;11.70;99.90
76293;DHT22;67256;51.154;4.164;2024-02-14T03:45:00;11.50;99.90
76293;DHT22;67256;51.154;4.164;2024-02-14T03:47:32;11.50;99.90
76293;DHT22;67256;51.154;4.164;2024-02-14T03:50:01;11.60;99.90
76293;DHT22;67256;51.154;4.164;2024-02-14T03:52:30;11.60;99.90
76293;DHT22;67256;51.154;4.164;2024-02-14T03:54:58;11.50;99.90
76293;DHT22;67256;51.154;4.164;2024-02-14T03:57:25;11.50;99.90
76293;DHT22;67256;51.154;4.164;2024-02-14T03:59:54;11.50;99.90
76293;DHT22;67256;51.154;4.164;2024-02-14T04:02:20;11.60;99.90
76293;DHT22;67256;51.154;4.164;2024-02-14T04:04:45;11.70;99.90
76293;DHT22;67256;51.154;4.164;2024-02-14T04:07:12;11.70;99.90
76293;DHT22;67256;51.154;4.164;2024-02-14T04:09:38;11.80;99.90
76293;DHT22;67256;51.154;4.164;2024-02-14T04:12:04;11.80;99.90
76293;DHT22;67256;51.154;4.164;2024-02-14T04:14:31;11.80;99.90
76293;DHT22;67256;51.154;4.164;2024-02-14T04:16:57;11.70;99.90
76293;DHT22;67256;51.154;4.164;2024-02-14T04:19:23;11.70;99.90
76293;DHT22;67256;51.154;4.164;2024-02-14T04:21:48;11.80;99.90
76293;DHT22;67256;51.154;4.164;2024-02-14T04:24:14;11.80;99.90
76293;DHT22;67256;51.154;4.164;2024-02-14T04:26:41;11.60;99.90
76293;DHT22;67256;51.154;4.164;2024-02-14T04:29:08;11.60;99.90
76293;DHT22;67256;51.154;4.164;2024-02-14T04:31:33;11.70;99.90
76293;DHT22;67256;51.154;4.164;2024-02-14T04:33:59;11.70;99.90
76293;DHT22;67256;51.154;4.164;2024-02-14T04:36:26;11.70;99.90
76293;DHT22;67256;51.154;4.164;2024-02-14T04:38:52;11.70;99.90
76293;DHT22;67256;51.154;4.164;2024-02-14T04:41:18;11.60;99.90
76293;DHT22;67256;51.154;4.164;2024-02-14T04:43:44;11.70;99.90
76293;DHT22;67256;51.154;4.164;2024-02-14T04:46:10;11.70;99.90
76293;DHT22;67256;51.154;4.164;2024-02-14T04:48:36;11.70;99.90
76293;DHT22;67256;51.154;4.164;2024-02-14T04:51:03;11.70;99.90
76293;DHT22;67256;51.154;4.164;2024-02-14T04:53:32;11.70;99.90
76293;DHT22;67256;51.154;4.164;2024-02-14T04:55:58;11.80;99.90
76293;DHT22;67256;51.154;4.164;2024-02-14T04:58:24;11.80;99.90
76293;DHT22;67256;51.154;4.164;2024-02-14T05:00:51;11.80;99.90
76293;DHT22;67256;51.154;4.164;2024-02-14T05:03:17;11.90;99.90
76293;DHT22;67256;51.154;4.164;2024-02-14T05:05:44;11.90;99.90
76293;DHT22;67256;51.154;4.164;2024-02-14T05:08:10;11.90;99.90
76293;DHT22;67256;51.154;4.164;2024-02-14T05:10:35;11.90;99.90
76293;DHT22;67256;51.154;4.164;2024-02-14T05:13:02;11.90;99.90
76293;DHT22;67256;51.154;4.164;2024-02-14T05:15:28;11.90;99.90
76293;DHT22;67256;51.154;4.164;2024-02-14T05:17:53;11.80;99.90
76293;DHT22;67256;51.154;4.164;2024-02-14T05:20:19;11.70;99.90
76293;DHT22;67256;51.154;4.164;2024-02-14T05:22:45;11.90;99.90
76293;DHT22;67256;51.154;4.164;2024-02-14T05:25:10;11.90;99.90
76293;DHT22;67256;51.154;4.164;2024-02-14T05:27:37;12.00;99.90
76293;DHT22;67256;51.154;4.164;2024-02-14T05:30:05;12.10;99.90
76293;DHT22;67256;51.154;4.164;2024-02-14T05:32:32;12.00;99.90
76293;DHT22;67256;51.154;4.164;2024-02-14T05:34:58;12.00;99.90
76293;DHT22;67256;51.154;4.164;2024-02-14T05:37:24;12.00;99.90
76293;DHT22;67256;51.154;4.164;2024-02-14T05:39:53;11.90;99.90
76293;DHT22;67256;51.154;4.164;2024-02-14T05:42:19;12.00;99.90
76293;DHT22;67256;51.154;4.164;2024-02-14T05:44:44;11.90;99.90
76293;DHT22;67256;51.154;4.164;2024-02-14T05:47:11;11.90;99.90
76293;DHT22;67256;51.154;4.164;2024-02-14T05:49:39;11.90;99.90
76293;DHT22;67256;51.154;4.164;2024-02-14T05:52:06;11.90;99.90
76293;DHT22;67256;51.154;4.164;2024-02-14T05:54:31;11.90;99.90
76293;DHT22;67256;51.154;4.164;2024-02-14T05:56:57;11.90;99.90
76293;DHT22;67256;51.154;4.164;2024-02-14T05:59:23;11.90;99.90
76293;DHT22;67256;51.154;4.164;2024-02-14T06:01:49;11.90;99.90
76293;DHT22;67256;51.154;4.164;2024-02-14T06:04:15;11.80;99.90
76293;DHT22;67256;51.154;4.164;2024-02-14T06:06:40;11.90;99.90
76293;DHT22;67256;51.154;4.164;2024-02-14T06:09:07;12.00;99.90
76293;DHT22;67256;51.154;4.164;2024-02-14T06:11:38;12.00;99.90
76293;DHT22;67256;51.154;4.164;2024-02-14T06:14:08;12.00;99.90
76293;DHT22;67256;51.154;4.164;2024-02-14T06:16:34;12.00;99.90
76293;DHT22;67256;51.154;4.164;2024-02-14T06:19:01;12.00;99.90
76293;DHT22;67256;51.154;4.164;2024-02-14T06:21:30;12.10;99.90
76293;DHT22;67256;51.154;4.164;2024-02-14T06:23:55;12.10;99.90
76293;DHT22;67256;51.154;4.164;2024-02-14T06:26:24;12.10;99.90
76293;DHT22;67256;51.154;4.164;2024-02-14T06:28:50;12.20;99.90
76293;DHT22;67256;51.154;4.164;2024-02-14T06:31:20;12.20;99.90
76293;DHT22;67256;51.154;4.164;2024-02-14T06:33:46;12.00;99.90
76293;DHT22;67256;51.154;4.164;2024-02-14T06:36:12;12.00;99.90
76293;DHT22;67256;51.154;4.164;2024-02-14T06:38:38;12.00;99.90
76293;DHT22;67256;51.154;4.164;2024-02-14T06:41:05;11.90;99.90
76293;DHT22;67256;51.154;4.164;2024-02-14T06:43:30;12.00;99.90
76293;DHT22;67256;51.154;4.164;2024-02-14T06:45:56;12.00;99.90
76293;DHT22;67256;51.154;4.164;2024-02-14T06:48:22;12.10;99.90
76293;DHT22;67256;51.154;4.164;2024-02-14T06:50:50;12.10;99.90
76293;DHT22;67256;51.154;4.164;2024-02-14T06:53:16;12.20;99.90
76293;DHT22;67256;51.154;4.164;2024-02-14T06:55:42;12.20;99.90
76293;DHT22;67256;51.154;4.164;2024-02-14T06:58:08;12.30;99.90
76293;DHT22;67256;51.154;4.164;2024-02-14T07:00:34;12.30;99.90
76293;DHT22;67256;51.154;4.164;2024-02-14T07:02:59;12.20;99.90
76293;DHT22;67256;51.154;4.164;2024-02-14T07:05:26;12.20;99.90
76293;DHT22;67256;51.154;4.164;2024-02-14T07:07:53;12.10;99.90
76293;DHT22;67256;51.154;4.164;2024-02-14T07:10:19;12.10;99.90
76293;DHT22;67256;51.154;4.164;2024-02-14T07:12:44;12.20;99.90
76293;DHT22;67256;51.154;4.164;2024-02-14T07:15:10;12.20;99.90
76293;DHT22;67256;51.154;4.164;2024-02-14T07:17:36;12.20;99.90
76293;DHT22;67256;51.154;4.164;2024-02-14T07:20:04;12.10;99.90
76293;DHT22;67256;51.154;4.164;2024-02-14T07:22:30;12.10;99.90
76293;DHT22;67256;51.154;4.164;2024-02-14T07:24:56;12.10;99.90
76293;DHT22;67256;51.154;4.164;2024-02-14T07:27:22;12.00;99.90
76293;DHT22;67256;51.154;4.164;2024-02-14T07:29:49;12.20;99.90
76293;DHT22;67256;51.154;4.164;2024-02-14T07:32:15;12.20;99.90
76293;DHT22;67256;51.154;4.164;2024-02-14T07:34:42;12.30;99.90
76293;DHT22;67256;51.154;4.164;2024-02-14T07:37:07;12.30;99.90
76293;DHT22;67256;51.154;4.164;2024-02-14T07:39:33;12.30;99.90
76293;DHT22;67256;51.154;4.164;2024-02-14T07:42:01;12.20;99.90
76293;DHT22;67256;51.154;4.164;2024-02-14T07:44:27;12.20;99.90
76293;DHT22;67256;51.154;4.164;2024-02-14T07:46:53;12.30;99.90
76293;DHT22;67256;51.154;4.164;2024-02-14T07:49:19;12.30;99.90
76293;DHT22;67256;51.154;4.164;2024-02-14T07:51:45;12.20;99.90
76293;DHT22;67256;51.154;4.164;2024-02-14T07:54:11;12.30;99.90
76293;DHT22;67256;51.154;4.164;2024-02-14T07:56:37;12.30;99.90
76293;DHT22;67256;51.154;4.164;2024-02-14T07:59:02;12.30;99.90
76293;DHT22;67256;51.154;4.164;2024-02-14T08:01:29;12.40;99.90
76293;DHT22;67256;51.154;4.164;2024-02-14T08:03:55;12.30;99.90
76293;DHT22;67256;51.154;4.164;2024-02-14T08:06:21;12.30;99.90
76293;DHT22;67256;51.154;4.164;2024-02-14T08:08:47;12.30;99.90
76293;DHT22;67256;51.154;4.164;2024-02-14T08:11:17;12.40;99.90
76293;DHT22;67256;51.154;4.164;2024-02-14T08:13:43;12.50;99.90
76293;DHT22;67256;51.154;4.164;2024-02-14T08:16:08;12.50;99.90
76293;DHT22;67256;51.154;4.164;2024-02-14T08:18:34;12.60;99.90
76293;DHT22;67256;51.154;4.164;2024-02-14T08:21:00;12.70;99.90
76293;DHT22;67256;51.154;4.164;2024-02-14T08:23:26;12.60;99.90
76293;DHT22;67256;51.154;4.164;2024-02-14T08:25:52;12.50;99.90
76293;DHT22;67256;51.154;4.164;2024-02-14T08:28:18;12.50;99.90
76293;DHT22;67256;51.154;4.164;2024-02-14T08:30:44;12.60;99.90
76293;DHT22;67256;51.154;4.164;2024-02-14T08:33:10;12.60;99.90
76293;DHT22;67256;51.154;4.164;2024-02-14T08:35:36;12.60;99.90
76293;DHT22;67256;51.154;4.164;2024-02-14T08:38:02;12.60;99.90
76293;DHT22;67256;51.154;4.164;2024-02-14T08:40:27;12.70;99.90
76293;DHT22;67256;51.154;4.164;2024-02-14T08:42:53;12.70;99.90
76293;DHT22;67256;51.154;4.164;2024-02-14T08:45:19;12.80;99.90
76293;DHT22;67256;51.154;4.164;2024-02-14T08:47:45;12.80;99.90
76293;DHT22;67256;51.154;4.164;2024-02-14T08:50:11;12.90;99.90
76293;DHT22;67256;51.154;4.164;2024-02-14T08:52:37;12.90;99.90
76293;DHT22;67256;51.154;4.164;2024-02-14T08:55:04;12.80;99.90
76293;DHT22;67256;51.154;4.164;2024-02-14T08:57:31;12.80;99.90
76293;DHT22;67256;51.154;4.164;2024-02-14T08:59:57;12.90;99.90
76293;DHT22;67256;51.154;4.164;2024-02-14T09:02:22;13.00;99.90
76293;DHT22;67256;51.154;4.164;2024-02-14T09:04:48;12.90;99.90
76293;DHT22;67256;51.154;4.164;2024-02-14T09:07:15;12.90;99.90
76293;DHT22;67256;51.154;4.164;2024-02-14T09:09:41;12.90;99.90
76293;DHT22;67256;51.154;4.164;2024-02-14T09:12:07;12.90;99.90
76293;DHT22;67256;51.154;4.164;2024-02-14T09:14:33;12.80;99.90
76293;DHT22;67256;51.154;4.164;2024-02-14T09:17:00;12.80;99.90
76293;DHT22;67256;51.154;4.164;2024-02-14T09:19:25;12.90;99.90
76293;DHT22;67256;51.154;4.164;2024-02-14T09:21:52;12.90;99.90
76293;DHT22;67256;51.154;4.164;2024-02-14T09:24:18;12.70;99.90
76293;DHT22;67256;51.154;4.164;2024-02-14T09:26:44;12.80;99.90
76293;DHT22;67256;51.154;4.164;2024-02-14T09:29:10;12.90;99.90
76293;DHT22;67256;51.154;4.164;2024-02-14T09:31:41;13.00;99.90
76293;DHT22;67256;51.154;4.164;2024-02-14T09:34:06;12.90;99.90
76293;DHT22;67256;51.154;4.164;2024-02-14T09:36:33;12.70;99.90
76293;DHT22;67256;51.154;4.164;2024-02-14T09:38:59;12.80;99.90
76293;DHT22;67256;51.154;4.164;2024-02-14T09:41:36;12.80;99.90
76293;DHT22;67256;51.154;4.164;2024-02-14T09:44:03;12.80;99.90
76293;DHT22;67256;51.154;4.164;2024-02-14T09:46:30;12.90;99.90
76293;DHT22;67256;51.154;4.164;2024-02-14T09:48:56;13.00;99.90
76293;DHT22;67256;51.154;4.164;2024-02-14T09:51:24;12.90;99.90
76293;DHT22;67256;51.154;4.164;2024-02-14T09:53:51;12.90;99.90
76293;DHT22;67256;51.154;4.164;2024-02-14T09:56:20;13.00;99.90
76293;DHT22;67256;51.154;4.164;2024-02-14T09:58:49;13.10;99.90
76293;DHT22;67256;51.154;4.164;2024-02-14T10:01:26;13.10;99.90
76293;DHT22;67256;51.154;4.164;2024-02-14T10:03:55;13.10;99.90
76293;DHT22;67256;51.154;4.164;2024-02-14T10:06:21;13.10;99.90
76293;DHT22;67256;51.154;4.164;2024-02-14T10:08:48;13.10;99.90
76293;DHT22;67256;51.154;4.164;2024-02-14T10:11:14;13.20;99.90
76293;DHT22;67256;51.154;4.164;2024-02-14T10:13:49;13.20;99.90
76293;DHT22;67256;51.154;4.164;2024-02-14T10:16:17;13.30;99.90
76293;DHT22;67256;51.154;4.164;2024-02-14T10:18:45;13.30;99.90
76293;DHT22;67256;51.154;4.164;2024-02-14T10:21:16;13.30;99.90
76293;DHT22;67256;51.154;4.164;2024-02-14T10:23:44;13.20;99.90
76293;DHT22;67256;51.154;4.164;2024-02-14T10:26:14;13.10;99.90
76293;DHT22;67256;51.154;4.164;2024-02-14T10:28:43;13.20;99.90
76293;DHT22;67256;51.154;4.164;2024-02-14T10:31:10;13.20;99.90
76293;DHT22;67256;51.154;4.164;2024-02-14T10:33:36;13.20;99.90
76293;DHT22;67256;51.154;4.164;2024-02-14T10:36:02;13.20;99.90
76293;DHT22;67256;51.154;4.164;2024-02-14T10:38:32;13.20;99.90
76293;DHT22;67256;51.154;4.164;2024-02-14T10:41:01;13.30;99.90
76293;DHT22;67256;51.154;4.164;2024-02-14T10:43:28;13.20;99.90
76293;DHT22;67256;51.154;4.164;2024-02-14T10:46:00;13.20;99.90
76293;DHT22;67256;51.154;4.164;2024-02-14T10:48:31;13.20;99.90
76293;DHT22;67256;51.154;4.164;2024-02-14T10:51:02;13.10;99.90
76293;DHT22;67256;51.154;4.164;2024-02-14T10:53:32;13.20;99.90
76293;DHT22;67256;51.154;4.164;2024-02-14T10:55:59;13.20;99.90
76293;DHT22;67256;51.154;4.164;2024-02-14T10:58:28;13.30;99.90
76293;DHT22;67256;51.154;4.164;2024-02-14T11:00:55;13.30;99.90
76293;DHT22;67256;51.154;4.164;2024-02-14T11:03:22;13.30;99.90
76293;DHT22;67256;51.154;4.164;2024-02-14T11:05:49;13.30;99.90
76293;DHT22;67256;51.154;4.164;2024-02-14T11:08:19;13.40;99.90
76293;DHT22;67256;51.154;4.164;2024-02-14T11:10:56;13.50;99.90
76293;DHT22;67256;51.154;4.164;2024-02-14T11:13:28;13.50;99.90
76293;DHT22;67256;51.154;4.164;2024-02-14T11:16:00;13.50;99.90
76293;DHT22;67256;51.154;4.164;2024-02-14T11:18:27;13.50;99.90
76293;DHT22;67256;51.154;4.164;2024-02-14T11:20:55;13.40;99.90
76293;DHT22;67256;51.154;4.164;2024-02-14T11:23:22;13.30;99.90
76293;DHT22;67256;51.154;4.164;2024-02-14T11:25:48;13.30;99.90
76293;DHT22;67256;51.154;4.164;2024-02-14T11:28:19;13.40;99.90
76293;DHT22;67256;51.154;4.164;2024-02-14T11:30:49;13.40;99.90
76293;DHT22;67256;51.154;4.164;2024-02-14T11:33:19;13.50;99.90
76293;DHT22;67256;51.154;4.164;2024-02-14T11:35:52;13.50;99.90
76293;DHT22;67256;51.154;4.164;2024-02-14T11:38:25;13.60;99.90
76293;DHT22;67256;51.154;4.164;2024-02-14T11:40:54;13.50;99.90
76293;DHT22;67256;51.154;4.164;2024-02-14T11:43:22;13.50;99.90
76293;DHT22;67256;51.154;4.164;2024-02-14T11:45:52;13.50;99.90
76293;DHT22;67256;51.154;4.164;2024-02-14T11:48:19;13.40;99.90
76293;DHT22;67256;51.154;4.164;2024-02-14T11:50:46;13.50;99.90
76293;DHT22;67256;51.154;4.164;2024-02-14T11:53:13;13.60;99.90
76293;DHT22;67256;51.154;4.164;2024-02-14T11:55:39;13.60;99.90
76293;DHT22;67256;51.154;4.164;2024-02-14T11:58:16;13.60;99.90
76293;DHT22;67256;51.154;4.164;2024-02-14T12:00:43;13.60;99.90
76293;DHT22;67256;51.154;4.164;2024-02-14T12:03:21;13.60;99.90
76293;DHT22;67256;51.154;4.164;2024-02-14T12:05:50;13.70;99.90
76293;DHT22;67256;51.154;4.164;2024-02-14T12:08:18;13.70;99.90
76293;DHT22;67256;51.154;4.164;2024-02-14T12:10:44;13.70;99.90
76293;DHT22;67256;51.154;4.164;2024-02-14T12:13:16;13.70;99.90
76293;DHT22;67256;51.154;4.164;2024-02-14T12:15:45;13.70;99.90
76293;DHT22;67256;51.154;4.164;2024-02-14T12:18:12;13.80;99.90
76293;DHT22;67256;51.154;4.164;2024-02-14T12:20:38;13.80;99.90
76293;DHT22;67256;51.154;4.164;2024-02-14T12:23:04;13.90;99.90
76293;DHT22;67256;51.154;4.164;2024-02-14T12:25:34;13.80;99.90
76293;DHT22;67256;51.154;4.164;2024-02-14T12:28:00;13.90;99.90
76293;DHT22;67256;51.154;4.164;2024-02-14T12:30:43;13.80;99.90
76293;DHT22;67256;51.154;4.164;2024-02-14T12:33:11;13.80;99.90
76293;DHT22;67256;51.154;4.164;2024-02-14T12:35:37;13.70;99.90
76293;DHT22;67256;51.154;4.164;2024-02-14T12:38:08;13.80;99.90
76293;DHT22;67256;51.154;4.164;2024-02-14T12:40:38;13.80;99.90
76293;DHT22;67256;51.154;4.164;2024-02-14T12:43:07;13.80;99.90
76293;DHT22;67256;51.154;4.164;2024-02-14T12:45:33;13.90;99.90
76293;DHT22;67256;51.154;4.164;2024-02-14T12:47:59;13.80;99.90
76293;DHT22;67256;51.154;4.164;2024-02-14T12:50:25;13.80;99.90
76293;DHT22;67256;51.154;4.164;2024-02-14T12:52:51;13.80;99.90
76293;DHT22;67256;51.154;4.164;2024-02-14T12:55:17;13.80;99.90
76293;DHT22;67256;51.154;4.164;2024-02-14T12:57:45;13.80;99.90
76293;DHT22;67256;51.154;4.164;2024-02-14T13:00:11;13.80;99.90
76293;DHT22;67256;51.154;4.164;2024-02-14T13:02:37;13.70;99.90
76293;DHT22;67256;51.154;4.164;2024-02-14T13:05:06;13.80;99.90
76293;DHT22;67256;51.154;4.164;2024-02-14T13:07:36;13.80;99.90
76293;DHT22;67256;51.154;4.164;2024-02-14T13:10:02;13.80;99.90
76293;DHT22;67256;51.154;4.164;2024-02-14T13:12:29;13.80;99.90
76293;DHT22;67256;51.154;4.164;2024-02-14T13:14:54;13.90;99.90
76293;DHT22;67256;51.154;4.164;2024-02-14T13:17:20;13.90;99.90
76293;DHT22;67256;51.154;4.164;2024-02-14T13:19:46;14.00;99.90
76293;DHT22;67256;51.154;4.164;2024-02-14T13:22:15;14.00;99.90
76293;DHT22;67256;51.154;4.164;2024-02-14T13:24:41;13.80;99.90
76293;DHT22;67256;51.154;4.164;2024-02-14T13:27:06;13.80;99.90
76293;DHT22;67256;51.154;4.164;2024-02-14T13:29:33;13.90;99.90
76293;DHT22;67256;51.154;4.164;2024-02-14T13:31:59;13.90;99.90
76293;DHT22;67256;51.154;4.164;2024-02-14T13:34:27;13.90;99.90
76293;DHT22;67256;51.154;4.164;2024-02-14T13:36:52;13.90;99.90
76293;DHT22;67256;51.154;4.164;2024-02-14T13:39:18;13.90;99.90
76293;DHT22;67256;51.154;4.164;2024-02-14T13:41:44;14.00;99.90
76293;DHT22;67256;51.154;4.164;2024-02-14T13:44:10;14.10;99.90
76293;DHT22;67256;51.154;4.164;2024-02-14T13:46:37;14.00;99.90
76293;DHT22;67256;51.154;4.164;2024-02-14T13:49:03;13.90;99.90
76293;DHT22;67256;51.154;4.164;2024-02-14T13:51:29;13.90;99.90
76293;DHT22;67256;51.154;4.164;2024-02-14T13:53:55;13.90;99.90
76293;DHT22;67256;51.154;4.164;2024-02-14T13:56:21;13.90;99.90
76293;DHT22;67256;51.154;4.164;2024-02-14T13:58:47;13.80;99.90
76293;DHT22;67256;51.154;4.164;2024-02-14T14:01:14;13.90;99.90
76293;DHT22;67256;51.154;4.164;2024-02-14T14:03:40;13.90;99.90
76293;DHT22;67256;51.154;4.164;2024-02-14T14:06:07;14.00;99.90
76293;DHT22;67256;51.154;4.164;2024-02-14T14:08:34;13.90;99.90
76293;DHT22;67256;51.154;4.164;2024-02-14T14:11:02;13.90;99.90
76293;DHT22;67256;51.154;4.164;2024-02-14T14:13:28;13.90;99.90
76293;DHT22;67256;51.154;4.164;2024-02-14T14:15:57;14.00;99.90
76293;DHT22;67256;51.154;4.164;2024-02-14T14:18:22;13.90;99.90
76293;DHT22;67256;51.154;4.164;2024-02-14T14:20:49;14.00;99.90
76293;DHT22;67256;51.154;4.164;2024-02-14T14:23:14;13.90;99.90
76293;DHT22;67256;51.154;4.164;2024-02-14T14:25:42;13.90;99.90
76293;DHT22;67256;51.154;4.164;2024-02-14T14:28:07;14.00;99.90
76293;DHT22;67256;51.154;4.164;2024-02-14T14:30:35;14.10;99.90
76293;DHT22;67256;51.154;4.164;2024-02-14T14:33:01;14.10;99.90
76293;DHT22;67256;51.154;4.164;2024-02-14T14:35:27;14.00;99.90
76293;DHT22;67256;51.154;4.164;2024-02-14T14:37:54;14.10;99.90
76293;DHT22;67256;51.154;4.164;2024-02-14T14:40:20;14.10;99.90
76293;DHT22;67256;51.154;4.164;2024-02-14T14:42:47;14.20;99.90
76293;DHT22;67256;51.154;4.164;2024-02-14T14:45:12;14.20;99.90
76293;DHT22;67256;51.154;4.164;2024-02-14T14:47:38;14.20;99.90
76293;DHT22;67256;51.154;4.164;2024-02-14T14:50:05;14.20;99.90
76293;DHT22;67256;51.154;4.164;2024-02-14T14:52:32;14.20;99.90
76293;DHT22;67256;51.154;4.164;2024-02-14T14:54:58;14.20;99.90
76293;DHT22;67256;51.154;4.164;2024-02-14T14:57:24;14.20;99.90
76293;DHT22;67256;51.154;4.164;2024-02-14T14:59:50;14.20;99.90
76293;DHT22;67256;51.154;4.164;2024-02-14T15:02:16;14.20;99.90
76293;DHT22;67256;51.154;4.164;2024-02-14T15:04:42;14.20;99.90
76293;DHT22;67256;51.154;4.164;2024-02-14T15:07:10;14.10;99.90
76293;DHT22;67256;51.154;4.164;2024-02-14T15:09:35;14.20;99.90
76293;DHT22;67256;51.154;4.164;2024-02-14T15:12:01;14.20;99.90
76293;DHT22;67256;51.154;4.164;2024-02-14T15:14:27;14.20;99.90
76293;DHT22;67256;51.154;4.164;2024-02-14T15:16:52;14.30;99.90
76293;DHT22;67256;51.154;4.164;2024-02-14T15:19:18;14.20;99.90
76293;DHT22;67256;51.154;4.164;2024-02-14T15:21:44;14.20;99.90
76293;DHT22;67256;51.154;4.164;2024-02-14T15:24:10;14.30;99.90
76293;DHT22;67256;51.154;4.164;2024-02-14T15:26:35;14.30;99.90